Delta Virtual Airport Information Service

Luxembourg Findel Airport

ICAO: ELLX Country: Luxembourg
Latitude: 49.6233 Longitude: 6.20444
Latest Arrival : RYR1948 (2) (EIDW-ELLX) Latest Departure : DAC3356 (ELLX-LDDU)


WX CaptureLIVE
Data provided by noaa.gov | Fetched at 08:42:11

METAR : ELLX 061420Z 05012KT 020V100 CAVOK 06/M08 Q1028 NOSIG

TAF : ELLX 061100Z 0612/0718 07012KT CAVOK


Runway Data for ELLX
Data provided by openaviationdata.com

Runway ID Mag Var Hdg Length Elevation Surface ILS Freq ILS Id ILS Slope
6 0 60° 13141 ft 1234 ft Asphalt 109.9 ILE 3
24 0 240° 13141 ft 1234 ft Asphalt 110.7 ILW 3

Luxembourg Findel Airport, Luxembourg
Use only for reference purposes



Not for navigational purposes.